sensor_id;sensor_type;location;lat;lon;timestamp;pressure;altitude;pressure_sealevel;temperature;humidity
5703;BME280;2876;51.738;10.050;2023-08-17T03:12:31;99470.47;;;19.36;100.00
5703;BME280;2876;51.738;10.050;2023-08-17T03:18:33;99471.72;;;19.29;100.00
5703;BME280;2876;51.738;10.050;2023-08-17T03:24:35;99477.50;;;19.54;100.00
5703;BME280;2876;51.738;10.050;2023-08-17T03:30:37;99476.63;;;19.26;100.00
5703;BME280;2876;51.738;10.050;2023-08-17T03:36:39;99481.41;;;19.19;100.00
5703;BME280;2876;51.738;10.050;2023-08-17T03:42:41;99484.78;;;19.26;100.00
5703;BME280;2876;51.738;10.050;2023-08-17T03:48:43;99495.94;;;19.30;100.00
5703;BME280;2876;51.738;10.050;2023-08-17T03:54:45;99494.38;;;19.34;100.00
5703;BME280;2876;51.738;10.050;2023-08-17T04:00:51;99494.09;;;19.31;100.00
5703;BME280;2876;51.738;10.050;2023-08-17T04:06:53;99507.59;;;19.25;100.00
5703;BME280;2876;51.738;10.050;2023-08-17T04:12:56;99508.78;;;19.35;100.00
5703;BME280;2876;51.738;10.050;2023-08-17T04:18:58;99503.44;;;19.18;100.00
5703;BME280;2876;51.738;10.050;2023-08-17T04:25:00;99509.06;;;19.33;100.00
5703;BME280;2876;51.738;10.050;2023-08-17T04:31:02;99522.88;;;19.10;100.00
5703;BME280;2876;51.738;10.050;2023-08-17T04:37:04;99528.31;;;19.10;100.00
5703;BME280;2876;51.738;10.050;2023-08-17T04:43:06;99527.66;;;19.19;100.00
5703;BME280;2876;51.738;10.050;2023-08-17T04:49:08;99531.00;;;19.26;100.00
5703;BME280;2876;51.738;10.050;2023-08-17T04:55:13;99520.97;;;19.27;100.00
5703;BME280;2876;51.738;10.050;2023-08-17T05:01:15;99520.38;;;19.25;100.00
5703;BME280;2876;51.738;10.050;2023-08-17T05:07:17;99519.44;;;19.36;100.00
5703;BME280;2876;51.738;10.050;2023-08-17T05:13:20;99524.81;;;19.31;100.00
5703;BME280;2876;51.738;10.050;2023-08-17T05:19:22;99517.66;;;19.25;100.00
5703;BME280;2876;51.738;10.050;2023-08-17T05:25:24;99515.69;;;19.42;100.00
5703;BME280;2876;51.738;10.050;2023-08-17T05:31:28;99518.25;;;19.49;100.00
5703;BME280;2876;51.738;10.050;2023-08-17T05:37:29;99514.31;;;19.62;100.00
5703;BME280;2876;51.738;10.050;2023-08-17T05:43:31;99517.34;;;19.87;100.00
5703;BME280;2876;51.738;10.050;2023-08-17T05:49:33;99526.53;;;20.03;100.00
5703;BME280;2876;51.738;10.050;2023-08-17T05:55:35;99529.97;;;20.25;100.00
5703;BME280;2876;51.738;10.050;2023-08-17T06:01:37;99526.63;;;20.13;100.00
5703;BME280;2876;51.738;10.050;2023-08-17T06:07:39;99527.06;;;20.32;100.00
5703;BME280;2876;51.738;10.050;2023-08-17T06:13:41;99527.03;;;20.27;100.00
5703;BME280;2876;51.738;10.050;2023-08-17T06:19:43;99529.44;;;20.23;100.00
5703;BME280;2876;51.738;10.050;2023-08-17T06:25:45;99528.16;;;20.31;100.00
5703;BME280;2876;51.738;10.050;2023-08-17T06:31:47;99527.53;;;20.51;100.00
5703;BME280;2876;51.738;10.050;2023-08-17T06:37:49;99537.13;;;20.59;100.00
5703;BME280;2876;51.738;10.050;2023-08-17T06:43:53;99532.81;;;20.63;100.00
5703;BME280;2876;51.738;10.050;2023-08-17T06:49:55;99537.94;;;20.91;100.00
5703;BME280;2876;51.738;10.050;2023-08-17T06:55:59;99535.38;;;21.17;100.00
5703;BME280;2876;51.738;10.050;2023-08-17T07:02:04;99548.19;;;21.64;100.00
5703;BME280;2876;51.738;10.050;2023-08-17T07:08:06;99546.31;;;21.74;100.00
5703;BME280;2876;51.738;10.050;2023-08-17T07:14:08;99556.56;;;21.47;100.00
5703;BME280;2876;51.738;10.050;2023-08-17T07:20:11;99560.34;;;22.03;100.00
5703;BME280;2876;51.738;10.050;2023-08-17T07:26:18;99562.75;;;21.90;100.00
5703;BME280;2876;51.738;10.050;2023-08-17T07:32:23;99554.41;;;22.22;100.00
5703;BME280;2876;51.738;10.050;2023-08-17T07:38:26;99557.72;;;22.70;100.00
5703;BME280;2876;51.738;10.050;2023-08-17T07:44:29;99559.63;;;22.79;98.72
5703;BME280;2876;51.738;10.050;2023-08-17T07:50:33;99552.38;;;23.60;95.65
5703;BME280;2876;51.738;10.050;2023-08-17T07:56:35;99551.53;;;23.60;94.91
5703;BME280;2876;51.738;10.050;2023-08-17T08:02:37;99563.84;;;23.72;93.20
5703;BME280;2876;51.738;10.050;2023-08-17T08:08:40;99564.44;;;23.54;93.34
5703;BME280;2876;51.738;10.050;2023-08-17T08:14:42;99562.03;;;23.32;93.81
5703;BME280;2876;51.738;10.050;2023-08-17T08:20:44;99560.81;;;23.74;93.42
5703;BME280;2876;51.738;10.050;2023-08-17T08:26:46;99566.63;;;24.22;89.99
5703;BME280;2876;51.738;10.050;2023-08-17T08:32:48;99566.09;;;24.15;90.99
5703;BME280;2876;51.738;10.050;2023-08-17T08:38:50;99565.13;;;24.45;90.11
5703;BME280;2876;51.738;10.050;2023-08-17T08:44:52;99572.25;;;24.46;89.57
5703;BME280;2876;51.738;10.050;2023-08-17T08:50:55;99563.44;;;24.49;88.66
5703;BME280;2876;51.738;10.050;2023-08-17T08:57:06;99569.16;;;24.58;87.36
5703;BME280;2876;51.738;10.050;2023-08-17T09:03:10;99569.31;;;25.00;85.85
5703;BME280;2876;51.738;10.050;2023-08-17T09:09:15;99553.53;;;24.09;86.22
5703;BME280;2876;51.738;10.050;2023-08-17T09:15:18;99560.06;;;24.57;85.70
5703;BME280;2876;51.738;10.050;2023-08-17T09:21:24;99553.72;;;24.67;83.92
5703;BME280;2876;51.738;10.050;2023-08-17T09:27:26;99548.88;;;24.53;84.95
5703;BME280;2876;51.738;10.050;2023-08-17T09:33:32;99543.59;;;24.62;86.58
5703;BME280;2876;51.738;10.050;2023-08-17T09:39:34;99548.28;;;25.20;85.88
5703;BME280;2876;51.738;10.050;2023-08-17T09:45:37;99547.25;;;25.40;82.69
5703;BME280;2876;51.738;10.050;2023-08-17T09:51:43;99534.69;;;26.00;80.77
5703;BME280;2876;51.738;10.050;2023-08-17T09:57:47;99535.38;;;27.69;74.54
5703;BME280;2876;51.738;10.050;2023-08-17T10:03:51;99535.84;;;28.13;69.09
5703;BME280;2876;51.738;10.050;2023-08-17T10:10:05;99531.00;;;28.54;70.00
5703;BME280;2876;51.738;10.050;2023-08-17T10:16:23;99535.31;;;28.11;69.53
5703;BME280;2876;51.738;10.050;2023-08-17T10:22:40;99536.72;;;27.86;70.60
5703;BME280;2876;51.738;10.050;2023-08-17T10:28:47;99543.84;;;29.04;68.43
5703;BME280;2876;51.738;10.050;2023-08-17T10:34:51;99540.03;;;28.69;65.79
5703;BME280;2876;51.738;10.050;2023-08-17T10:41:14;99528.66;;;28.25;66.47
5703;BME280;2876;51.738;10.050;2023-08-17T10:47:32;99530.41;;;28.21;69.53
5703;BME280;2876;51.738;10.050;2023-08-17T10:53:37;99535.56;;;28.00;70.50
5703;BME280;2876;51.738;10.050;2023-08-17T10:59:44;99529.38;;;27.81;71.25
5703;BME280;2876;51.738;10.050;2023-08-17T11:05:51;99530.00;;;26.58;70.17
5703;BME280;2876;51.738;10.050;2023-08-17T11:12:00;99537.84;;;27.71;71.01
5703;BME280;2876;51.738;10.050;2023-08-17T11:18:02;99525.78;;;28.75;65.14
5703;BME280;2876;51.738;10.050;2023-08-17T11:24:10;99534.63;;;29.48;63.76
5703;BME280;2876;51.738;10.050;2023-08-17T11:30:13;99541.97;;;30.53;58.43
5703;BME280;2876;51.738;10.050;2023-08-17T11:36:16;99545.28;;;31.58;53.50
5703;BME280;2876;51.738;10.050;2023-08-17T11:42:18;99542.59;;;31.41;54.94
5703;BME280;2876;51.738;10.050;2023-08-17T11:48:21;99541.22;;;33.47;51.44
5703;BME280;2876;51.738;10.050;2023-08-17T11:54:23;99546.44;;;32.70;50.29
5703;BME280;2876;51.738;10.050;2023-08-17T12:00:25;99544.34;;;33.46;50.16
5703;BME280;2876;51.738;10.050;2023-08-17T12:06:27;99552.44;;;35.56;44.80
5703;BME280;2876;51.738;10.050;2023-08-17T12:12:29;99534.56;;;34.13;45.60
5703;BME280;2876;51.738;10.050;2023-08-17T12:18:35;99527.84;;;32.71;48.19
5703;BME280;2876;51.738;10.050;2023-08-17T12:24:37;99529.38;;;35.27;44.29
5703;BME280;2876;51.738;10.050;2023-08-17T12:30:40;99524.97;;;34.67;45.78
5703;BME280;2876;51.738;10.050;2023-08-17T12:36:44;99527.41;;;31.76;51.63
5703;BME280;2876;51.738;10.050;2023-08-17T12:42:46;99517.06;;;29.53;59.09
5703;BME280;2876;51.738;10.050;2023-08-17T12:48:48;99509.53;;;28.74;61.99
5703;BME280;2876;51.738;10.050;2023-08-17T12:54:50;99505.50;;;28.80;60.54
5703;BME280;2876;51.738;10.050;2023-08-17T13:00:53;99503.47;;;28.63;61.99
5703;BME280;2876;51.738;10.050;2023-08-17T13:06:58;99499.22;;;29.19;59.65
5703;BME280;2876;51.738;10.050;2023-08-17T13:13:00;99512.56;;;33.96;51.50
5703;BME280;2876;51.738;10.050;2023-08-17T13:19:03;99506.97;;;32.98;51.84
5703;BME280;2876;51.738;10.050;2023-08-17T13:25:05;99502.53;;;32.30;54.58
5703;BME280;2876;51.738;10.050;2023-08-17T13:31:07;99507.81;;;32.44;54.91
5703;BME280;2876;51.738;10.050;2023-08-17T13:37:25;99499.75;;;32.10;55.31
5703;BME280;2876;51.738;10.050;2023-08-17T13:43:29;99509.72;;;31.30;57.36
5703;BME280;2876;51.738;10.050;2023-08-17T13:49:31;99509.72;;;30.14;62.75
5703;BME280;2876;51.738;10.050;2023-08-17T13:55:33;99512.97;;;30.25;61.94
5703;BME280;2876;51.738;10.050;2023-08-17T14:01:35;99518.25;;;31.08;60.05
5703;BME280;2876;51.738;10.050;2023-08-17T14:07:37;99512.91;;;29.73;64.32
5703;BME280;2876;51.738;10.050;2023-08-17T14:13:39;99503.00;;;29.72;63.76
5703;BME280;2876;51.738;10.050;2023-08-17T14:19:41;99514.09;;;30.85;60.00
5703;BME280;2876;51.738;10.050;2023-08-17T14:25:45;99519.84;;;31.18;58.05
5703;BME280;2876;51.738;10.050;2023-08-17T14:31:47;99511.66;;;32.10;55.11
5703;BME280;2876;51.738;10.050;2023-08-17T14:37:49;99517.09;;;31.09;56.59
5703;BME280;2876;51.738;10.050;2023-08-17T14:43:51;99520.88;;;29.74;60.49
5703;BME280;2876;51.738;10.050;2023-08-17T14:49:52;99520.19;;;29.60;61.86
5703;BME280;2876;51.738;10.050;2023-08-17T14:55:55;99512.50;;;29.48;61.59
5703;BME280;2876;51.738;10.050;2023-08-17T15:01:57;99514.00;;;28.02;66.37
5703;BME280;2876;51.738;10.050;2023-08-17T15:07:59;99516.69;;;27.11;69.31
5703;BME280;2876;51.738;10.050;2023-08-17T15:14:01;99513.47;;;26.39;72.47
5703;BME280;2876;51.738;10.050;2023-08-17T15:20:03;99530.16;;;26.28;73.20
5703;BME280;2876;51.738;10.050;2023-08-17T15:26:05;99514.38;;;25.35;75.89
5703;BME280;2876;51.738;10.050;2023-08-17T15:32:08;99523.38;;;24.48;79.72
5703;BME280;2876;51.738;10.050;2023-08-17T15:38:11;99526.78;;;24.35;80.41
5703;BME280;2876;51.738;10.050;2023-08-17T15:44:12;99531.47;;;23.79;82.80
5703;BME280;2876;51.738;10.050;2023-08-17T15:50:14;99526.44;;;23.37;84.74
5703;BME280;2876;51.738;10.050;2023-08-17T15:56:16;99537.44;;;23.12;86.02
5703;BME280;2876;51.738;10.050;2023-08-17T16:02:20;99530.38;;;22.95;87.94
5703;BME280;2876;51.738;10.050;2023-08-17T16:08:22;99550.31;;;22.65;88.85
5703;BME280;2876;51.738;10.050;2023-08-17T16:14:38;99537.31;;;21.84;92.04
5703;BME280;2876;51.738;10.050;2023-08-17T16:20:40;99520.88;;;21.59;93.57
5703;BME280;2876;51.738;10.050;2023-08-17T16:26:42;99514.59;;;21.58;94.09
5703;BME280;2876;51.738;10.050;2023-08-17T16:32:44;99504.53;;;21.79;92.97
5703;BME280;2876;51.738;10.050;2023-08-17T16:38:46;99502.09;;;21.77;93.29
5703;BME280;2876;51.738;10.050;2023-08-17T16:44:55;99513.03;;;21.98;92.20
5703;BME280;2876;51.738;10.050;2023-08-17T16:50:57;99524.22;;;21.76;93.30
5703;BME280;2876;51.738;10.050;2023-08-17T16:56:59;99543.59;;;21.79;93.74
5703;BME280;2876;51.738;10.050;2023-08-17T17:03:01;99546.56;;;21.68;93.71
5703;BME280;2876;51.738;10.050;2023-08-17T17:09:03;99551.09;;;21.05;96.71
5703;BME280;2876;51.738;10.050;2023-08-17T17:15:06;99544.88;;;21.09;96.38
5703;BME280;2876;51.738;10.050;2023-08-17T17:21:11;99532.06;;;20.72;98.68
5703;BME280;2876;51.738;10.050;2023-08-17T17:27:13;99531.00;;;20.78;99.70
5703;BME280;2876;51.738;10.050;2023-08-17T17:33:15;99537.53;;;20.72;99.97
5703;BME280;2876;51.738;10.050;2023-08-17T17:45:18;99523.03;;;21.09;97.66
5703;BME280;2876;51.738;10.050;2023-08-17T17:51:21;99524.59;;;20.95;97.70
5703;BME280;2876;51.738;10.050;2023-08-17T17:57:23;99530.13;;;20.68;99.44
5703;BME280;2876;51.738;10.050;2023-08-17T18:03:25;99526.91;;;20.44;100.00
5703;BME280;2876;51.738;10.050;2023-08-17T18:09:29;99527.97;;;20.43;100.00
5703;BME280;2876;51.738;10.050;2023-08-17T18:15:33;99534.50;;;20.42;100.00
5703;BME280;2876;51.738;10.050;2023-08-17T18:21:36;99551.31;;;20.34;100.00
5703;BME280;2876;51.738;10.050;2023-08-17T18:27:41;99553.50;;;20.59;100.00
5703;BME280;2876;51.738;10.050;2023-08-17T18:33:43;99558.31;;;20.51;100.00
5703;BME280;2876;51.738;10.050;2023-08-17T18:39:45;99554.56;;;20.31;100.00
5703;BME280;2876;51.738;10.050;2023-08-17T18:45:47;99567.47;;;20.13;100.00
5703;BME280;2876;51.738;10.050;2023-08-17T18:51:49;99564.94;;;20.34;100.00
5703;BME280;2876;51.738;10.050;2023-08-17T18:57:51;99575.75;;;20.23;100.00
5703;BME280;2876;51.738;10.050;2023-08-17T19:03:55;99576.22;;;19.93;100.00
5703;BME280;2876;51.738;10.050;2023-08-17T19:09:58;99575.03;;;19.84;100.00
5703;BME280;2876;51.738;10.050;2023-08-17T19:16:00;99574.63;;;19.97;100.00
5703;BME280;2876;51.738;10.050;2023-08-17T19:22:02;99571.59;;;19.94;100.00
5703;BME280;2876;51.738;10.050;2023-08-17T19:28:04;99577.53;;;20.13;100.00
5703;BME280;2876;51.738;10.050;2023-08-17T19:34:06;99570.94;;;19.82;100.00
5703;BME280;2876;51.738;10.050;2023-08-17T19:40:09;99569.09;;;19.87;100.00
5703;BME280;2876;51.738;10.050;2023-08-17T19:46:11;99573.75;;;19.70;100.00
5703;BME280;2876;51.738;10.050;2023-08-17T19:52:13;99563.53;;;19.77;100.00
5703;BME280;2876;51.738;10.050;2023-08-17T19:58:15;99553.50;;;19.61;100.00
5703;BME280;2876;51.738;10.050;2023-08-17T20:04:17;99565.53;;;19.65;100.00
5703;BME280;2876;51.738;10.050;2023-08-17T20:10:19;99562.22;;;19.85;100.00
5703;BME280;2876;51.738;10.050;2023-08-17T20:16:21;99565.16;;;19.78;100.00
5703;BME280;2876;51.738;10.050;2023-08-17T20:22:23;99557.56;;;19.80;100.00
5703;BME280;2876;51.738;10.050;2023-08-17T20:28:26;99559.94;;;19.71;100.00
5703;BME280;2876;51.738;10.050;2023-08-17T20:34:28;99543.31;;;19.73;100.00
5703;BME280;2876;51.738;10.050;2023-08-17T20:40:30;99543.94;;;19.80;100.00
5703;BME280;2876;51.738;10.050;2023-08-17T20:46:32;99548.63;;;19.85;100.00
5703;BME280;2876;51.738;10.050;2023-08-17T20:52:34;99542.13;;;19.64;100.00
5703;BME280;2876;51.738;10.050;2023-08-17T21:04:51;99536.81;;;19.74;100.00
5703;BME280;2876;51.738;10.050;2023-08-17T21:10:53;99548.44;;;19.69;100.00
5703;BME280;2876;51.738;10.050;2023-08-17T21:16:56;99540.91;;;19.55;100.00
5703;BME280;2876;51.738;10.050;2023-08-17T21:22:58;99538.00;;;19.61;100.00
5703;BME280;2876;51.738;10.050;2023-08-17T21:29:00;99524.44;;;19.66;100.00
5703;BME280;2876;51.738;10.050;2023-08-17T21:35:02;99521.66;;;19.83;100.00
5703;BME280;2876;51.738;10.050;2023-08-17T21:41:04;99539.91;;;19.61;100.00
5703;BME280;2876;51.738;10.050;2023-08-17T21:47:06;99539.50;;;19.52;100.00
5703;BME280;2876;51.738;10.050;2023-08-17T21:53:08;99551.66;;;19.44;100.00
5703;BME280;2876;51.738;10.050;2023-08-17T21:59:10;99553.28;;;19.45;100.00
5703;BME280;2876;51.738;10.050;2023-08-17T22:05:14;99562.97;;;19.36;100.00
5703;BME280;2876;51.738;10.050;2023-08-17T22:11:15;99567.34;;;19.59;100.00
5703;BME280;2876;51.738;10.050;2023-08-17T22:17:17;99571.81;;;19.65;100.00
5703;BME280;2876;51.738;10.050;2023-08-17T22:23:20;99583.50;;;19.66;100.00
5703;BME280;2876;51.738;10.050;2023-08-17T22:29:22;99584.94;;;19.51;100.00
5703;BME280;2876;51.738;10.050;2023-08-17T22:35:24;99576.28;;;19.55;100.00
5703;BME280;2876;51.738;10.050;2023-08-17T22:41:26;99584.31;;;19.66;100.00
5703;BME280;2876;51.738;10.050;2023-08-17T22:47:30;99576.34;;;19.60;100.00
5703;BME280;2876;51.738;10.050;2023-08-17T22:53:32;99577.91;;;19.72;100.00
5703;BME280;2876;51.738;10.050;2023-08-17T22:59:34;99576.91;;;19.62;100.00
5703;BME280;2876;51.738;10.050;2023-08-17T23:05:36;99577.00;;;19.67;100.00
5703;BME280;2876;51.738;10.050;2023-08-17T23:11:38;99563.00;;;19.58;100.00
5703;BME280;2876;51.738;10.050;2023-08-17T23:17:40;99569.91;;;19.66;100.00
5703;BME280;2876;51.738;10.050;2023-08-17T23:23:42;99556.63;;;19.52;100.00
5703;BME280;2876;51.738;10.050;2023-08-17T23:29:44;99546.56;;;19.70;100.00
5703;BME280;2876;51.738;10.050;2023-08-17T23:35:46;99546.56;;;19.70;100.00
5703;BME280;2876;51.738;10.050;2023-08-17T23:41:48;99545.34;;;19.61;100.00
5703;BME280;2876;51.738;10.050;2023-08-17T23:47:50;99540.50;;;19.63;100.00
5703;BME280;2876;51.738;10.050;2023-08-17T23:53:52;99537.00;;;19.67;100.00
5703;BME280;2876;51.738;10.050;2023-08-17T23:59:54;99533.81;;;19.75;100.00
